Time;durP1;ratioP1;P1;durP2;ratioP2;P2;SDS_P1;SDS_P2;PMS_P1;PMS_P2;Temp;Humidity;BMP_temperature;BMP_pressure;BME280_temperature;BME280_humidity;BME280_pressure;Samples;Min_cycle;Max_cycle;Signal;HPM_P1;HPM_P2
2022/02/14 00:00:15;;;;;;;0.60;0.60;;;;;;;4.13;51.82;96261.81;29373;225;63009;-65
2022/02/14 00:00:46;;;;;;;0.52;0.52;;;;;;;4.14;52.22;96252.69;29373;228;63012;-64
2022/02/14 00:01:17;;;;;;;0.60;0.60;;;;;;;4.13;52.18;96257.25;29373;244;63009;-59
2022/02/14 00:01:49;;;;;;;0.50;0.50;;;;;;;4.11;52.36;96261.28;29394;218;64004;-64
2022/02/14 00:02:24;;;;;;;0.60;0.60;;;;;;;4.12;52.36;96254.84;29373;313;63012;-64
2022/02/14 00:02:55;;;;;;;0.60;0.60;;;;;;;4.10;52.15;96254.31;29373;244;63010;-59
2022/02/14 00:03:28;;;;;;;0.60;0.60;;;;;;;4.11;52.13;96253.22;29395;199;63008;-64
2022/02/14 00:03:59;;;;;;;0.60;0.60;;;;;;;4.10;52.07;96248.94;29395;205;63012;-60
2022/02/14 00:04:30;;;;;;;0.60;0.60;;;;;;;4.09;52.22;96255.38;29373;232;63015;-60
2022/02/14 00:05:03;;;;;;;0.50;0.50;;;;;;;4.09;52.58;96247.31;29395;218;63014;-65
2022/02/14 00:05:34;;;;;;;0.60;0.60;;;;;;;4.09;52.60;96250.00;29395;280;63009;-62
2022/02/14 00:06:05;;;;;;;0.60;0.60;;;;;;;4.08;52.54;96254.56;29395;199;63009;-60
2022/02/14 00:06:38;;;;;;;0.60;0.60;;;;;;;4.08;52.48;96251.87;29395;232;63009;-65
2022/02/14 00:07:09;;;;;;;0.50;0.50;;;;;;;4.06;52.76;96245.16;29394;238;64005;-60
2022/02/14 00:07:44;;;;;;;0.60;0.60;;;;;;;4.01;52.53;96252.13;29395;202;63009;-60
2022/02/14 00:08:15;;;;;;;0.60;0.60;;;;;;;4.00;52.48;96247.03;29371;197;64004;-63
2022/02/14 00:08:47;;;;;;;0.60;0.60;;;;;;;4.00;52.62;96247.84;29395;298;63009;-59
2022/02/14 00:09:18;;;;;;;0.60;0.60;;;;;;;4.01;52.23;96237.91;29371;228;64004;-59
2022/02/14 00:09:49;;;;;;;0.60;0.60;;;;;;;4.05;52.10;96241.69;29395;197;63009;-63
2022/02/14 00:10:20;;;;;;;0.60;0.60;;;;;;;4.10;51.60;96235.50;29373;198;63000;-64
2022/02/14 00:10:52;;;;;;;0.60;0.60;;;;;;;4.12;51.62;96246.78;29373;212;63008;-59
2022/02/14 00:11:24;;;;;;;0.60;0.60;;;;;;;4.15;51.54;96232.84;29395;197;63005;-60
2022/02/14 00:11:56;;;;;;;0.60;0.60;;;;;;;4.16;51.64;96239.81;29395;263;63008;-59
2022/02/14 00:12:28;;;;;;;0.60;0.60;;;;;;;4.15;51.46;96239.00;29395;202;63005;-59
2022/02/14 00:12:59;;;;;;;0.60;0.60;;;;;;;4.21;51.06;96235.22;29395;200;63023;-63
2022/02/14 00:13:30;;;;;;;0.60;0.60;;;;;;;4.23;51.14;96237.66;29394;279;64005;-67
2022/02/14 00:14:02;;;;;;;0.52;0.52;;;;;;;4.19;51.46;96236.56;29395;237;63009;-63
2022/02/14 00:14:33;;;;;;;0.70;0.70;;;;;;;4.17;51.62;96230.66;29394;259;64005;-60
2022/02/14 00:15:05;;;;;;;0.50;0.50;;;;;;;4.16;51.62;96229.84;29373;213;63009;-62
2022/02/14 00:15:37;;;;;;;0.60;0.60;;;;;;;4.14;51.50;96226.66;29373;208;63004;-61
2022/02/14 00:16:08;;;;;;;0.60;0.60;;;;;;;4.16;51.89;96234.44;29373;197;63009;-63
2022/02/14 00:16:39;;;;;;;0.50;0.50;;;;;;;4.16;51.52;96229.84;29373;235;63008;-60
2022/02/14 00:17:10;;;;;;;0.60;0.60;;;;;;;4.18;51.60;96232.25;29395;294;63009;-60
2022/02/14 00:17:41;;;;;;;0.60;0.60;;;;;;;4.18;51.83;96238.44;29373;196;63004;-60
2022/02/14 00:18:15;;;;;;;1.25;1.25;;;;;;;4.16;52.01;96234.44;29395;197;63008;-59
2022/02/14 00:18:46;;;;;;;0.60;0.60;;;;;;;4.12;52.12;96233.38;29395;311;63005;-63
2022/02/14 00:19:17;;;;;;;0.60;0.60;;;;;;;4.11;52.46;96237.13;29395;279;63009;-64
2022/02/14 00:19:50;;;;;;;0.60;0.60;;;;;;;4.13;51.94;96232.28;29371;202;64005;-65
2022/02/14 00:20:21;;;;;;;0.60;0.60;;;;;;;4.12;52.28;96233.38;29395;197;63009;-63
2022/02/14 00:20:52;;;;;;;0.82;0.80;;;;;;;4.14;51.97;96228.53;29373;247;63005;-70
2022/02/14 00:21:24;;;;;;;0.60;0.60;;;;;;;4.15;51.81;96227.47;29373;337;63009;-58
2022/02/14 00:21:57;;;;;;;0.60;0.60;;;;;;;4.17;51.34;96230.66;29395;269;63005;-70
2022/02/14 00:22:29;;;;;;;0.60;0.60;;;;;;;4.18;51.37;96233.06;29373;286;63009;-60
2022/02/14 00:23:00;;;;;;;0.60;0.60;;;;;;;4.18;51.28;96222.34;29373;295;63004;-60
2022/02/14 00:23:35;;;;;;;0.60;0.60;;;;;;;4.18;51.73;96226.91;29373;257;63009;-60
2022/02/14 00:24:09;;;;;;;0.50;0.50;;;;;;;4.18;51.43;96226.91;29373;238;63010;-71
2022/02/14 00:24:41;;;;;;;0.60;0.60;;;;;;;4.17;51.86;96218.03;29394;282;64009;-66
2022/02/14 00:25:13;;;;;;;0.60;0.60;;;;;;;4.18;51.82;96221.53;29394;243;64004;-68
2022/02/14 00:25:45;;;;;;;0.60;0.60;;;;;;;4.20;51.37;96224.75;29395;258;63008;-66
2022/02/14 00:26:17;;;;;;;0.60;0.60;;;;;;;4.21;51.27;96221.00;29373;232;63005;-68
2022/02/14 00:26:50;;;;;;;0.60;0.60;;;;;;;4.25;51.02;96224.75;29395;328;63009;-59
2022/02/14 00:27:22;;;;;;;0.60;0.60;;;;;;;4.25;51.16;96222.88;29395;234;63009;-66
2022/02/14 00:27:53;;;;;;;0.60;0.60;;;;;;;4.28;50.62;96210.78;29373;258;63009;-59
2022/02/14 00:28:25;;;;;;;0.60;0.60;;;;;;;4.30;50.61;96214.03;29373;197;63004;-67
2022/02/14 00:28:56;;;;;;;0.60;0.60;;;;;;;4.28;50.58;96218.84;29395;228;63009;-60
2022/02/14 00:29:28;;;;;;;0.60;0.60;;;;;;;4.24;50.97;96215.91;29373;245;63005;-67
2022/02/14 00:30:02;;;;;;;1.17;1.17;;;;;;;4.25;51.39;96219.38;29373;262;63009;-65
2022/02/14 00:30:35;;;;;;;0.50;0.50;;;;;;;4.27;51.38;96219.94;29394;293;64005;-60
2022/02/14 00:31:07;;;;;;;0.60;0.60;;;;;;;4.28;51.59;96218.84;29371;253;64009;-63
2022/02/14 00:31:38;;;;;;;0.60;0.60;;;;;;;4.30;50.82;96214.03;29395;196;63004;-69
2022/02/14 00:32:09;;;;;;;0.60;0.60;;;;;;;4.31;51.11;96218.31;29395;245;63009;-68
2022/02/14 00:32:41;;;;;;;0.60;0.60;;;;;;;4.31;51.04;96215.63;29395;202;63016;-67
2022/02/14 00:33:12;;;;;;;0.60;0.60;;;;;;;4.33;50.90;96208.91;29395;295;63008;-60
2022/02/14 00:33:44;;;;;;;0.50;0.50;;;;;;;4.36;50.20;96204.87;29395;256;63001;-60
2022/02/14 00:34:16;;;;;;;0.60;0.60;;;;;;;4.36;50.71;96200.31;29373;341;63009;-67
2022/02/14 00:34:48;;;;;;;0.65;0.65;;;;;;;4.38;50.70;96200.84;29394;220;64005;-65
2022/02/14 00:35:19;;;;;;;0.60;0.60;;;;;;;4.40;50.61;96202.47;29395;243;63009;-60
2022/02/14 00:35:51;;;;;;;0.60;0.60;;;;;;;4.38;50.20;96202.75;29395;234;63005;-67
2022/02/14 00:36:23;;;;;;;0.60;0.60;;;;;;;4.37;50.49;96203.81;29395;202;63009;-67
2022/02/14 00:36:55;;;;;;;0.60;0.60;;;;;;;4.35;50.95;96200.59;29395;245;63005;-63
2022/02/14 00:37:26;;;;;;;0.50;0.50;;;;;;;4.34;50.56;96193.59;29395;275;63009;-64
2022/02/14 00:37:58;;;;;;;0.60;0.60;;;;;;;4.33;50.60;96189.31;29371;218;64004;-58
2022/02/14 00:38:29;;;;;;;0.60;0.60;;;;;;;4.33;51.06;96202.75;29373;332;63009;-59
2022/02/14 00:39:02;;;;;;;0.50;0.50;;;;;;;4.32;50.80;96201.12;29373;204;63004;-59
2022/02/14 00:39:33;;;;;;;0.60;0.60;;;;;;;4.30;50.77;96195.22;29395;227;63009;-70
2022/02/14 00:40:06;;;;;;;0.50;0.50;;;;;;;4.28;51.00;96200.84;29373;223;63004;-66
2022/02/14 00:40:38;;;;;;;0.57;0.57;;;;;;;4.26;51.33;96203.00;29394;332;63997;-67
2022/02/14 00:41:10;;;;;;;0.60;0.60;;;;;;;4.30;51.01;96192.53;29394;273;64004;-69
2022/02/14 00:41:42;;;;;;;0.60;0.60;;;;;;;4.35;51.11;96200.59;29373;246;63009;-62
2022/02/14 00:42:14;;;;;;;0.60;0.60;;;;;;;4.33;50.76;96192.81;29373;207;63005;-58
2022/02/14 00:42:46;;;;;;;0.60;0.60;;;;;;;4.32;50.75;96199.25;29395;197;63009;-68
2022/02/14 00:43:21;;;;;;;0.60;0.60;;;;;;;4.31;51.05;96188.78;29395;205;63005;-65
2022/02/14 00:43:52;;;;;;;0.50;0.50;;;;;;;4.29;51.04;96188.25;29395;266;63016;-67
2022/02/14 00:44:23;;;;;;;1.23;1.17;;;;;;;4.33;50.89;96192.00;29372;196;63005;-66
2022/02/14 00:44:55;;;;;;;0.60;0.60;;;;;;;4.35;50.42;96184.47;29394;223;64009;-66
2022/02/14 00:45:26;;;;;;;0.57;0.57;;;;;;;4.37;50.52;96187.69;29394;239;64005;-67
2022/02/14 00:45:57;;;;;;;0.50;0.50;;;;;;;4.36;50.68;96186.91;29395;231;63009;-68
2022/02/14 00:46:28;;;;;;;0.50;0.50;;;;;;;4.34;50.48;96185.56;29395;374;63004;-60
2022/02/14 00:46:59;;;;;;;0.50;0.50;;;;;;;4.34;50.88;96185.56;29373;226;63009;-58
2022/02/14 00:47:30;;;;;;;0.60;0.60;;;;;;;4.37;50.10;96176.97;29395;196;63004;-60
2022/02/14 00:48:03;;;;;;;0.80;0.80;;;;;;;4.38;50.23;96186.62;29395;206;63008;-59
2022/02/14 00:48:34;;;;;;;0.60;0.60;;;;;;;4.37;49.95;96177.75;29373;322;63004;-60
2022/02/14 00:49:06;;;;;;;0.57;0.57;;;;;;;4.36;50.63;96180.72;29373;220;63009;-69
2022/02/14 00:49:37;;;;;;;0.50;0.50;;;;;;;4.31;50.71;96183.41;29373;240;63005;-67
2022/02/14 00:50:11;;;;;;;0.50;0.50;;;;;;;4.30;50.91;96181.78;29395;197;63009;-68
2022/02/14 00:50:42;;;;;;;0.60;0.60;;;;;;;4.32;50.46;96176.97;29371;235;64005;-60
2022/02/14 00:51:15;;;;;;;0.50;0.50;;;;;;;4.34;50.52;96182.87;29373;223;63009;-67
2022/02/14 00:51:47;;;;;;;0.60;0.60;;;;;;;4.34;50.50;96172.13;29373;230;63005;-60
2022/02/14 00:52:18;;;;;;;0.57;0.57;;;;;;;4.37;49.93;96176.97;29373;197;63009;-68
2022/02/14 00:52:50;;;;;;;0.60;0.60;;;;;;;4.36;50.41;96178.03;29373;199;63005;-60
2022/02/14 00:53:21;;;;;;;0.60;0.60;;;;;;;4.35;50.31;96168.38;29373;302;63009;-59
2022/02/14 00:53:52;;;;;;;0.60;0.60;;;;;;;4.40;50.42;96173.72;29395;238;63004;-66
2022/02/14 00:54:25;;;;;;;0.50;0.50;;;;;;;4.45;50.13;96178.28;29395;210;63009;-68
2022/02/14 00:54:58;;;;;;;0.50;0.50;;;;;;;4.54;49.82;96172.06;29395;288;63004;-60
2022/02/14 00:55:30;;;;;;;0.60;0.60;;;;;;;4.53;49.48;96175.84;29395;219;63009;-65
2022/02/14 00:56:02;;;;;;;0.60;0.60;;;;;;;4.52;49.94;96171.53;29371;250;64004;-60
2022/02/14 00:56:33;;;;;;;0.50;0.50;;;;;;;4.55;49.97;96167.50;29372;217;63009;-63
2022/02/14 00:57:07;;;;;;;0.60;0.60;;;;;;;4.57;49.07;96166.16;29394;257;64005;-67
2022/02/14 00:57:38;;;;;;;0.60;0.60;;;;;;;4.56;49.77;96169.94;29373;225;63009;-65
2022/02/14 00:58:09;;;;;;;0.50;0.50;;;;;;;4.51;49.71;96169.94;29395;225;63005;-65
2022/02/14 00:58:41;;;;;;;0.60;0.60;;;;;;;4.48;49.88;96173.19;29395;198;63009;-65
2022/02/14 00:59:12;;;;;;;0.50;0.50;;;;;;;4.44;49.91;96169.44;29394;229;64005;-67
2022/02/14 00:59:43;;;;;;;0.50;0.50;;;;;;;4.42;50.46;96174.28;29395;229;63018;-67
2022/02/14 01:00:18;;;;;;;0.60;0.60;;;;;;;4.44;50.31;96174.81;29395;209;63005;-58
2022/02/14 01:00:49;;;;;;;0.60;0.60;;;;;;;4.42;50.35;96171.59;29394;235;64009;-59
2022/02/14 01:01:20;;;;;;;0.70;0.70;;;;;;;4.41;50.43;96172.66;29395;305;63004;-61
2022/02/14 01:01:51;;;;;;;1.23;1.23;;;;;;;4.42;50.56;96168.09;29373;289;63009;-67
2022/02/14 01:02:22;;;;;;;0.60;0.60;;;;;;;4.47;49.80;96170.78;29373;214;63008;-71
2022/02/14 01:02:55;;;;;;;0.60;0.60;;;;;;;4.45;49.86;96168.34;29395;296;63009;-66
2022/02/14 01:03:26;;;;;;;0.60;0.60;;;;;;;4.48;49.55;96165.13;29395;235;63004;-71
2022/02/14 01:03:58;;;;;;;0.60;0.60;;;;;;;4.47;49.88;96166.19;29371;297;64009;-65
2022/02/14 01:04:29;;;;;;;0.60;0.60;;;;;;;4.49;49.92;96168.63;29373;197;63005;-67
2022/02/14 01:05:01;;;;;;;1.60;1.50;;;;;;;4.48;50.18;96172.38;29373;286;63009;-63
2022/02/14 01:05:32;;;;;;;0.60;0.60;;;;;;;4.46;50.45;96169.97;29395;230;63005;-68
2022/02/14 01:06:04;;;;;;;0.60;0.60;;;;;;;4.48;49.45;96162.44;29371;229;64009;-60
2022/02/14 01:06:35;;;;;;;0.60;0.60;;;;;;;4.48;49.36;96162.44;29373;252;63005;-58
2022/02/14 01:07:07;;;;;;;0.60;0.60;;;;;;;4.48;49.49;96162.44;29395;203;63009;-67
2022/02/14 01:07:39;;;;;;;0.50;0.50;;;;;;;4.47;49.64;96162.72;29395;229;63004;-61
2022/02/14 01:08:10;;;;;;;0.60;0.60;;;;;;;4.44;49.88;96163.25;29373;197;63009;-69
2022/02/14 01:08:45;;;;;;;0.60;0.60;;;;;;;4.45;49.21;96164.88;29373;203;63004;-65
2022/02/14 01:09:16;;;;;;;0.60;0.60;;;;;;;4.42;49.58;96157.34;29373;262;63009;-65
2022/02/14 01:09:47;;;;;;;0.60;0.60;;;;;;;4.41;49.87;96158.41;29373;218;63000;-60
2022/02/14 01:10:18;;;;;;;0.60;0.60;;;;;;;4.42;49.93;96158.16;29395;227;63008;-68
2022/02/14 01:10:51;;;;;;;0.60;0.60;;;;;;;4.42;49.85;96162.72;29373;222;63004;-66
2022/02/14 01:11:23;;;;;;;0.57;0.57;;;;;;;4.41;49.93;96161.91;29394;213;64008;-60
2022/02/14 01:11:54;;;;;;;0.60;0.60;;;;;;;4.44;49.53;96156.00;29395;219;63005;-66
2022/02/14 01:12:26;;;;;;;0.60;0.60;;;;;;;4.42;49.32;96158.16;29395;202;63009;-59
2022/02/14 01:13:00;;;;;;;0.60;0.60;;;;;;;4.44;49.66;96156.00;29395;225;63005;-68
2022/02/14 01:13:32;;;;;;;0.60;0.60;;;;;;;4.42;49.22;96152.78;29395;210;63009;-59
2022/02/14 01:14:03;;;;;;;0.60;0.60;;;;;;;4.42;49.76;96155.47;29395;229;63005;-59
2022/02/14 01:14:36;;;;;;;0.50;0.50;;;;;;;4.42;49.58;96147.41;29395;233;63009;-64
2022/02/14 01:15:10;;;;;;;0.60;0.60;;;;;;;4.43;49.79;96159.75;29394;208;63996;-65
2022/02/14 01:15:42;;;;;;;0.50;0.50;;;;;;;4.49;48.89;96153.31;29395;244;63009;-64
2022/02/14 01:16:13;;;;;;;0.55;0.55;;;;;;;4.50;49.19;96160.28;29395;295;63004;-61
2022/02/14 01:16:44;;;;;;;0.50;0.50;;;;;;;4.48;49.49;96145.53;29373;297;63004;-70
2022/02/14 01:17:15;;;;;;;0.60;0.60;;;;;;;4.46;49.35;96148.47;29373;203;63004;-64
2022/02/14 01:17:46;;;;;;;0.60;0.60;;;;;;;4.45;49.30;96152.25;29395;205;63008;-59
2022/02/14 01:18:18;;;;;;;0.50;0.50;;;;;;;4.45;49.16;96149.56;29373;287;63005;-59
2022/02/14 01:18:49;;;;;;;0.55;0.55;;;;;;;4.45;49.40;96152.25;29394;239;64009;-59
2022/02/14 01:19:22;;;;;;;0.57;0.57;;;;;;;4.46;49.34;96155.72;29395;280;63005;-67
2022/02/14 01:19:54;;;;;;;0.60;0.60;;;;;;;4.43;49.57;96149.00;29395;219;63009;-67
2022/02/14 01:20:26;;;;;;;0.60;0.60;;;;;;;4.45;49.58;96146.06;29395;208;63005;-69
2022/02/14 01:20:57;;;;;;;0.60;0.60;;;;;;;4.46;48.96;96151.16;29395;274;63009;-67
2022/02/14 01:21:28;;;;;;;0.60;0.60;;;;;;;4.44;49.37;96150.63;29395;214;63005;-60
2022/02/14 01:22:00;;;;;;;0.60;0.60;;;;;;;4.43;49.20;96149.00;29371;354;64009;-59
2022/02/14 01:22:32;;;;;;;0.60;0.60;;;;;;;4.42;49.46;96147.41;29373;202;63004;-66
2022/02/14 01:23:03;;;;;;;0.60;0.60;;;;;;;4.42;49.40;96146.59;29395;199;63009;-59
2022/02/14 01:23:35;;;;;;;0.60;0.60;;;;;;;4.42;49.37;96147.41;29395;286;63014;-59
2022/02/14 01:24:09;;;;;;;0.57;0.57;;;;;;;4.43;48.68;96143.66;29373;218;63009;-69
2022/02/14 01:24:41;;;;;;;0.60;0.60;;;;;;;4.49;48.85;96142.56;29395;245;63008;-61
2022/02/14 01:25:13;;;;;;;0.60;0.60;;;;;;;4.51;48.98;96139.56;29395;223;63008;-68
2022/02/14 01:25:44;;;;;;;0.60;0.60;;;;;;;4.52;49.11;96142.00;29395;289;63004;-65
2022/02/14 01:26:15;;;;;;;0.60;0.60;;;;;;;4.52;48.77;96142.00;29373;347;63009;-67
2022/02/14 01:26:46;;;;;;;0.70;0.70;;;;;;;4.55;48.61;96141.44;29373;257;63005;-58
2022/02/14 01:27:17;;;;;;;0.57;0.57;;;;;;;4.57;48.44;96136.59;29394;232;64009;-59
2022/02/14 01:27:48;;;;;;;0.57;0.57;;;;;;;4.63;47.92;96132.03;29373;307;63000;-60
2022/02/14 01:28:23;;;;;;;0.60;0.60;;;;;;;4.64;47.59;96134.44;29373;210;63019;-60
2022/02/14 01:28:57;;;;;;;0.55;0.55;;;;;;;4.62;47.98;96136.59;29373;221;63005;-59
2022/02/14 01:29:34;;;;;;;0.57;0.57;;;;;;;4.62;47.98;96135.78;29373;199;63009;-61
2022/02/14 01:30:07;;;;;;;0.60;0.60;;;;;;;4.58;48.54;96129.34;29373;291;63004;-60
2022/02/14 01:30:38;;;;;;;0.60;0.60;;;;;;;4.56;48.26;96131.50;29373;358;63009;-65
2022/02/14 01:31:10;;;;;;;0.60;0.60;;;;;;;4.53;48.30;96129.37;29373;266;63004;-66
2022/02/14 01:31:42;;;;;;;0.60;0.60;;;;;;;4.48;48.28;96130.22;29395;327;63009;-60
2022/02/14 01:32:16;;;;;;;0.60;0.60;;;;;;;4.47;47.86;96128.59;29371;194;64006;-60
2022/02/14 01:32:48;;;;;;;0.60;0.60;;;;;;;4.48;48.42;96124.03;29395;278;63008;-61
2022/02/14 01:33:22;;;;;;;0.55;0.55;;;;;;;4.48;48.67;96124.03;29373;202;63005;-63
2022/02/14 01:33:53;;;;;;;0.60;0.60;;;;;;;4.46;48.73;96121.63;29371;235;64009;-59
2022/02/14 01:34:24;;;;;;;0.50;0.50;;;;;;;4.48;48.63;96127.53;29373;220;63005;-60
2022/02/14 01:34:55;;;;;;;0.60;0.60;;;;;;;4.49;47.77;96125.62;29373;203;63009;-65
2022/02/14 01:35:28;;;;;;;0.60;0.60;;;;;;;4.48;48.47;96124.84;29395;264;63005;-59
2022/02/14 01:35:59;;;;;;;0.60;0.60;;;;;;;4.47;48.13;96123.22;29373;222;63009;-68
2022/02/14 01:36:31;;;;;;;0.60;0.60;;;;;;;4.54;47.80;96112.97;29373;338;63005;-68
2022/02/14 01:37:03;;;;;;;0.60;0.60;;;;;;;4.55;47.67;96119.94;29395;199;63009;-64
2022/02/14 01:37:39;;;;;;;0.60;0.60;;;;;;;4.55;48.00;96119.94;29394;279;64004;-59
2022/02/14 01:38:10;;;;;;;0.60;0.60;;;;;;;4.56;47.99;96126.94;29373;204;63009;-60
2022/02/14 01:38:41;;;;;;;0.55;0.55;;;;;;;4.60;47.38;96117.25;29373;298;63004;-67
2022/02/14 01:39:15;;;;;;;0.60;0.60;;;;;;;4.61;46.94;96105.44;29395;237;63009;-60
2022/02/14 01:39:47;;;;;;;0.60;0.60;;;;;;;4.64;47.40;96112.94;29395;232;63004;-60
2022/02/14 01:40:21;;;;;;;0.60;0.60;;;;;;;4.62;47.70;96115.09;29395;238;63008;-68
2022/02/14 01:40:52;;;;;;;0.60;0.60;;;;;;;4.62;47.28;96111.63;29394;287;64005;-59
2022/02/14 01:41:24;;;;;;;0.60;0.60;;;;;;;4.62;47.35;96107.03;29395;345;63009;-59
2022/02/14 01:41:56;;;;;;;0.60;0.60;;;;;;;4.62;47.10;96111.63;29395;212;63005;-58
2022/02/14 01:42:27;;;;;;;0.50;0.50;;;;;;;4.59;47.19;96110.28;29395;332;63009;-59
2022/02/14 01:42:59;;;;;;;0.60;0.60;;;;;;;4.55;47.69;96108.41;29395;220;63005;-60
2022/02/14 01:43:32;;;;;;;0.60;0.60;;;;;;;4.52;47.93;96112.44;29394;202;64009;-59
2022/02/14 01:44:04;;;;;;;0.60;0.60;;;;;;;4.55;47.35;96114.59;29395;250;63005;-59
2022/02/14 01:44:44;;;;;;;0.60;0.60;;;;;;;4.54;47.67;96104.91;29394;224;64009;-65
2022/02/14 01:45:16;;;;;;;0.60;0.60;;;;;;;4.56;47.31;96110.81;29417;238;63004;-66
2022/02/14 01:45:47;;;;;;;0.60;0.60;;;;;;;4.58;46.92;96103.28;29395;228;63009;-60
2022/02/14 01:46:18;;;;;;;0.70;0.70;;;;;;;4.62;47.53;96109.72;29395;338;63004;-67
2022/02/14 01:46:49;;;;;;;0.60;0.60;;;;;;;4.61;47.27;96102.75;29373;249;63009;-58
2022/02/14 01:47:26;;;;;;;0.55;0.55;;;;;;;4.59;47.55;96104.91;29373;331;63004;-60
2022/02/14 01:47:57;;;;;;;0.60;0.60;;;;;;;4.58;47.45;96103.28;29395;196;63008;-60
2022/02/14 01:48:31;;;;;;;0.60;0.60;;;;;;;4.57;47.23;96104.38;29373;208;63005;-60
2022/02/14 01:49:04;;;;;;;0.60;0.60;;;;;;;4.54;47.52;96107.59;29394;215;64018;-68
2022/02/14 01:49:35;;;;;;;0.60;0.60;;;;;;;4.60;46.83;96106.50;29394;375;64005;-59
2022/02/14 01:50:14;;;;;;;0.60;0.60;;;;;;;4.63;46.72;96097.91;29373;282;63009;-58
2022/02/14 01:50:47;;;;;;;0.60;0.60;;;;;;;4.68;46.12;96097.09;29395;222;63005;-59
2022/02/14 01:51:19;;;;;;;0.60;0.60;;;;;;;4.69;46.21;96096.81;29373;268;63012;-66
2022/02/14 01:51:51;;;;;;;0.60;0.60;;;;;;;4.66;46.65;96100.03;29373;202;63000;-63
2022/02/14 01:52:23;;;;;;;0.60;0.60;;;;;;;4.69;45.85;96094.12;29395;290;63016;-64
2022/02/14 01:52:58;;;;;;;0.60;0.60;;;;;;;4.68;46.29;96095.19;29373;242;63004;-59
2022/02/14 01:53:29;;;;;;;0.60;0.60;;;;;;;4.71;46.34;96093.84;29395;292;63016;-68
2022/02/14 01:54:01;;;;;;;0.55;0.55;;;;;;;4.68;46.35;96089.03;29394;331;64004;-60
2022/02/14 01:54:35;;;;;;;0.52;0.52;;;;;;;4.66;46.55;96091.19;29394;233;64009;-59
2022/02/14 01:55:09;;;;;;;0.50;0.50;;;;;;;4.62;46.38;96093.59;29395;228;63004;-70
2022/02/14 01:55:41;;;;;;;0.60;0.60;;;;;;;4.60;46.63;96094.97;29395;219;63008;-59
2022/02/14 01:56:13;;;;;;;0.60;0.60;;;;;;;4.58;46.74;96100.59;29395;247;63005;-60
2022/02/14 01:56:44;;;;;;;0.50;0.50;;;;;;;4.57;46.65;96096.31;29395;218;63017;-59
2022/02/14 01:57:18;;;;;;;0.60;0.60;;;;;;;4.57;46.57;96101.69;29395;242;63005;-59
2022/02/14 01:57:50;;;;;;;0.60;0.60;;;;;;;4.56;46.43;96089.31;29395;245;63025;-61
2022/02/14 01:58:22;;;;;;;0.60;0.60;;;;;;;4.55;46.62;96092.28;29373;221;63005;-65
2022/02/14 01:58:54;;;;;;;0.60;0.60;;;;;;;4.54;46.37;96091.47;29394;215;64009;-59
2022/02/14 01:59:25;;;;;;;0.60;0.60;;;;;;;4.53;46.70;96099.81;29395;278;63005;-67
2022/02/14 01:59:59;;;;;;;0.60;0.60;;;;;;;4.53;46.93;96092.56;29395;368;63009;-59
2022/02/14 02:00:31;;;;;;;0.50;0.50;;;;;;;4.55;46.64;96093.09;29395;238;63004;-64
2022/02/14 02:01:02;;;;;;;0.60;0.60;;;;;;;4.56;46.90;96096.59;29394;234;64009;-60
2022/02/14 02:01:37;;;;;;;0.60;0.60;;;;;;;4.57;46.37;96093.63;29395;298;63004;-66
2022/02/14 02:02:09;;;;;;;0.60;0.60;;;;;;;4.60;46.04;96095.75;29394;202;64009;-67
2022/02/14 02:02:41;;;;;;;0.50;0.50;;;;;;;4.59;46.10;96088.78;29395;227;63004;-59
2022/02/14 02:03:12;;;;;;;1.55;1.55;;;;;;;4.62;46.45;96087.44;29395;196;63008;-60
2022/02/14 02:03:48;;;;;;;0.60;0.60;;;;;;;4.61;46.24;96086.62;29394;243;64005;-67
2022/02/14 02:04:19;;;;;;;0.60;0.60;;;;;;;4.60;46.88;96089.59;29395;203;63009;-59
2022/02/14 02:04:52;;;;;;;0.50;0.50;;;;;;;4.58;46.01;96087.16;29395;222;63005;-60
2022/02/14 02:05:24;;;;;;;0.60;0.60;;;;;;;4.58;46.37;96089.84;29395;225;63009;-67
2022/02/14 02:05:57;;;;;;;0.60;0.60;;;;;;;4.64;45.92;96086.06;29395;271;63005;-59
2022/02/14 02:06:30;;;;;;;0.60;0.60;;;;;;;4.66;46.15;96088.50;29395;255;63009;-68
2022/02/14 02:07:02;;;;;;;0.60;0.60;;;;;;;4.67;46.26;96088.22;29395;210;63005;-67
2022/02/14 02:07:34;;;;;;;0.60;0.60;;;;;;;4.68;46.03;96087.16;29395;228;63009;-60
2022/02/14 02:08:06;;;;;;;0.60;0.60;;;;;;;4.67;45.86;96085.53;29395;218;63004;-59
2022/02/14 02:08:37;;;;;;;0.60;0.60;;;;;;;4.67;46.46;96087.41;29394;239;64009;-66
2022/02/14 02:09:09;;;;;;;0.60;0.60;;;;;;;4.64;46.87;96083.37;29395;199;63004;-66
2022/02/14 02:09:43;;;;;;;0.60;0.60;;;;;;;4.62;46.85;96082.87;29395;265;63009;-61
2022/02/14 02:10:14;;;;;;;0.60;0.60;;;;;;;4.62;46.24;96080.16;29395;202;63014;-60
2022/02/14 02:10:46;;;;;;;0.60;0.60;;;;;;;4.59;45.93;96078.03;29395;228;63008;-59
2022/02/14 02:13:06;;;;;;;0.60;0.60;;;;;;;4.67;45.98;96077.47;29395;221;63005;-66
2022/02/14 02:13:37;;;;;;;0.60;0.60;;;;;;;4.68;45.70;96076.41;29371;196;64009;-67
2022/02/14 02:14:08;;;;;;;0.60;0.60;;;;;;;4.70;45.79;96074.25;29395;279;63005;-62
2022/02/14 02:14:39;;;;;;;0.60;0.60;;;;;;;4.70;45.89;96068.06;29373;217;63009;-71
2022/02/14 02:15:10;;;;;;;0.60;0.60;;;;;;;4.75;45.67;96072.59;29394;238;64004;-62
2022/02/14 02:15:42;;;;;;;0.60;0.60;;;;;;;4.76;45.75;96074.22;29395;225;63009;-60
2022/02/14 02:16:16;;;;;;;0.60;0.60;;;;;;;4.74;45.61;96068.31;29395;212;63004;-61
2022/02/14 02:16:49;;;;;;;0.50;0.50;;;;;;;4.74;45.87;96068.31;29395;235;63009;-66
2022/02/14 02:17:24;;;;;;;0.68;0.68;;;;;;;4.79;45.64;96070.97;29395;198;63000;-71
2022/02/14 02:17:55;;;;;;;0.60;0.60;;;;;;;4.77;45.88;96073.13;29394;273;64008;-60
2022/02/14 02:18:30;;;;;;;0.60;0.60;;;;;;;4.78;45.90;96074.75;29395;211;63004;-60
2022/02/14 02:19:01;;;;;;;0.60;0.60;;;;;;;4.79;45.40;96065.59;29395;203;63005;-60
2022/02/14 02:19:32;;;;;;;0.60;0.60;;;;;;;4.78;45.39;96069.38;29395;292;63005;-60
2022/02/14 02:20:07;;;;;;;0.60;0.60;;;;;;;4.77;45.60;96068.56;29395;215;63025;-69
2022/02/14 02:20:39;;;;;;;0.50;0.50;;;;;;;4.72;45.42;96066.72;29395;226;63005;-65
2022/02/14 02:21:10;;;;;;;0.60;0.60;;;;;;;4.74;44.95;96069.13;29395;226;63009;-65
2022/02/14 02:21:49;;;;;;;0.60;0.60;;;;;;;4.71;45.37;96059.72;29395;226;63005;-60
2022/02/14 02:22:22;;;;;;;0.50;0.50;;;;;;;4.74;45.35;96057.56;29395;243;63009;-67
2022/02/14 02:22:53;;;;;;;0.60;0.60;;;;;;;4.71;45.56;96058.91;29395;229;63004;-60
2022/02/14 02:23:25;;;;;;;0.60;0.60;;;;;;;4.67;45.64;96058.66;29394;211;64009;-67
2022/02/14 02:23:57;;;;;;;0.52;0.52;;;;;;;4.65;45.63;96065.38;29395;217;63004;-60
2022/02/14 02:24:33;;;;;;;0.60;0.60;;;;;;;4.65;46.32;96060.00;29394;224;64008;-68
2022/02/14 02:25:07;;;;;;;0.60;0.60;;;;;;;4.63;46.03;96057.59;29395;233;63004;-59
2022/02/14 02:25:38;;;;;;;0.55;0.55;;;;;;;4.62;45.92;96061.37;29395;346;63020;-66
2022/02/14 02:26:10;;;;;;;0.60;0.60;;;;;;;4.63;45.87;96056.78;29373;220;63005;-65
2022/02/14 02:26:45;;;;;;;0.60;0.60;;;;;;;4.70;45.13;96058.13;29395;219;63009;-68
2022/02/14 02:27:25;;;;;;;0.50;0.50;;;;;;;4.75;45.25;96054.59;29395;223;63005;-61
2022/02/14 02:27:56;;;;;;;0.50;0.50;;;;;;;4.78;45.02;96053.25;29395;221;63009;-64
2022/02/14 02:28:27;;;;;;;0.60;0.60;;;;;;;4.77;45.29;96057.81;29394;232;64005;-66
2022/02/14 02:28:59;;;;;;;0.60;0.60;;;;;;;4.74;45.64;96063.75;29395;281;63009;-59
2022/02/14 02:29:35;;;;;;;0.60;0.60;;;;;;;4.70;45.84;96057.31;29373;269;63004;-59
2022/02/14 02:30:12;;;;;;;0.60;0.60;;;;;;;4.72;45.02;96055.16;29395;210;63009;-66
2022/02/14 02:30:44;;;;;;;0.60;0.60;;;;;;;4.70;45.41;96063.50;29395;209;63004;-59
2022/02/14 02:31:15;;;;;;;0.60;0.60;;;;;;;4.70;45.89;96054.63;29395;232;63009;-59
2022/02/14 02:31:46;;;;;;;0.80;0.80;;;;;;;4.74;44.88;96049.50;29395;245;63004;-65
2022/02/14 02:32:17;;;;;;;0.60;0.60;;;;;;;4.76;44.89;96047.34;29395;233;63012;-68
2022/02/14 02:32:49;;;;;;;0.60;0.60;;;;;;;4.75;45.36;96048.41;29395;237;63004;-60
2022/02/14 02:33:20;;;;;;;0.60;0.60;;;;;;;4.75;44.97;96049.22;29394;220;64009;-56
2022/02/14 02:33:52;;;;;;;0.60;0.60;;;;;;;4.79;44.52;96033.34;29395;212;63005;-62
2022/02/14 02:34:24;;;;;;;0.60;0.60;;;;;;;4.82;44.90;96032.81;29395;222;63005;-62
2022/02/14 02:34:55;;;;;;;1.33;1.33;;;;;;;4.82;44.51;96038.97;29395;251;63005;-67
2022/02/14 02:35:26;;;;;;;0.60;0.60;;;;;;;4.84;45.10;96036.03;29395;202;63009;-67
2022/02/14 02:35:58;;;;;;;0.60;0.60;;;;;;;4.85;44.80;96029.56;29395;216;63005;-59
2022/02/14 02:36:30;;;;;;;0.60;0.60;;;;;;;4.85;44.22;96026.88;29394;249;64009;-61
2022/02/14 02:37:01;;;;;;;0.60;0.60;;;;;;;4.91;43.91;96028.44;29395;223;63005;-63